createdAt,value
2017-02-28T00:00:36.932Z,7.73
2017-02-28T00:01:17.577Z,7.73
2017-02-28T00:01:58.175Z,7.66
2017-02-28T00:02:38.870Z,7.7
2017-02-28T00:03:19.436Z,7.72
2017-02-28T00:04:00.093Z,7.7
2017-02-28T00:04:40.780Z,7.69
2017-02-28T00:05:21.376Z,7.61
2017-02-28T00:06:01.942Z,7.67
2017-02-28T00:06:42.600Z,7.73
2017-02-28T00:07:23.243Z,7.69
2017-02-28T00:08:03.896Z,7.72
2017-02-28T00:08:44.569Z,7.72
2017-02-28T00:09:26.232Z,7.66
2017-02-28T00:10:06.889Z,7.69
2017-02-28T00:10:47.540Z,7.7
2017-02-28T00:11:29.217Z,7.61
2017-02-28T00:12:09.913Z,7.7
2017-02-28T00:12:50.615Z,7.67
2017-02-28T00:13:31.189Z,7.72
2017-02-28T00:14:11.832Z,7.7
2017-02-28T00:14:52.516Z,7.61
2017-02-28T00:15:36.001Z,7.69
2017-02-28T00:16:16.668Z,7.67
2017-02-28T00:17:07.969Z,7.61
2017-02-28T00:17:48.608Z,7.69
2017-02-28T00:18:29.292Z,7.61
2017-02-28T00:19:10.938Z,7.6
2017-02-28T00:19:51.611Z,7.63
2017-02-28T00:20:32.238Z,7.73
2017-02-28T00:21:13.969Z,7.7
2017-02-28T00:21:54.593Z,7.69
2017-02-28T00:22:37.291Z,7.69
2017-02-28T00:23:17.938Z,7.75
2017-02-28T00:23:58.581Z,7.6
2017-02-28T00:24:49.904Z,7.66
2017-02-28T00:25:45.373Z,7.7
2017-02-28T00:26:28.026Z,7.6
2017-02-28T00:27:10.779Z,7.61
2017-02-28T00:27:51.338Z,7.7
2017-02-28T00:28:33.028Z,7.66
2017-02-28T00:29:13.713Z,7.58
2017-02-28T00:29:54.413Z,7.54
2017-02-28T00:30:35.025Z,7.54
2017-02-28T00:31:20.452Z,7.63
2017-02-28T00:32:02.167Z,7.53
2017-02-28T00:32:42.865Z,7.53
2017-02-28T00:33:23.440Z,7.54
2017-02-28T00:34:04.077Z,7.5
2017-02-28T00:34:45.711Z,7.45
2017-02-28T00:35:26.393Z,7.4
2017-02-28T00:36:06.967Z,7.39
2017-02-28T00:36:47.620Z,7.33
2017-02-28T00:37:29.294Z,7.31
2017-02-28T00:38:24.890Z,7.29
2017-02-28T00:39:06.575Z,7.29
2017-02-28T00:39:53.883Z,7.18
2017-02-28T00:40:39.461Z,7.17
2017-02-28T00:41:21.140Z,7.13
2017-02-28T00:42:01.771Z,7.13
2017-02-28T00:42:42.352Z,7.06
2017-02-28T00:45:17.707Z,7
2017-02-28T00:45:58.306Z,6.95
2017-02-28T00:46:44.507Z,6.97
2017-02-28T00:47:31.859Z,6.84
2017-02-28T00:48:13.584Z,6.95
2017-02-28T00:48:54.173Z,6.93
2017-02-28T00:49:41.559Z,6.85
2017-02-28T00:50:22.360Z,6.84
2017-02-28T00:51:08.685Z,6.89
2017-02-28T00:51:49.276Z,6.87
2017-02-28T00:52:29.910Z,6.85
2017-02-28T00:53:11.565Z,6.85
2017-02-28T00:53:52.149Z,6.88
2017-02-28T00:54:33.834Z,6.78
2017-02-28T00:55:14.546Z,6.75
2017-02-28T00:55:55.141Z,6.81
2017-02-28T01:28:31.330Z,6.02
2017-02-28T01:29:12.026Z,5.98
2017-02-28T01:39:48.882Z,6.28
2017-02-28T01:40:29.457Z,6.24
2017-02-28T01:41:21.629Z,6.27
2017-02-28T01:42:16.804Z,6.28
2017-02-28T01:42:57.370Z,6.24
2017-02-28T01:43:52.667Z,6.2
2017-02-28T01:44:39.919Z,6.16
2017-02-28T01:45:22.582Z,6.17
2017-02-28T01:46:03.143Z,6.19
2017-02-28T01:46:54.637Z,6.22
2017-02-28T01:47:47.354Z,6.17
2017-02-28T01:48:28.078Z,6.14
2017-02-28T02:18:17.285Z,6.22
2017-02-28T02:28:36.773Z,6.39
2017-02-28T02:29:17.449Z,6.42
2017-02-28T02:29:58.195Z,6.38
2017-02-28T02:30:38.764Z,6.24
2017-02-28T02:31:19.406Z,6.28
2017-02-28T02:32:00.141Z,6.27
2017-02-28T02:32:40.795Z,6.26
2017-02-28T02:33:21.452Z,6.22
2017-02-28T02:34:11.571Z,6.08
2017-02-28T02:34:52.237Z,6.2
2017-02-28T02:35:32.959Z,6.14
2017-02-28T02:36:13.592Z,6.16
2017-02-28T02:36:54.293Z,6.08
2017-02-28T02:37:35.015Z,6.07
2017-02-28T02:38:15.661Z,6.11
2017-02-28T02:38:57.342Z,6.05
2017-02-28T02:39:37.988Z,6.02
2017-02-28T02:40:18.624Z,6.07
2017-02-28T02:40:59.309Z,5.94
2017-02-28T02:41:39.936Z,5.97
2017-02-28T02:42:20.649Z,5.97
2017-02-28T02:43:01.347Z,5.9
2017-02-28T02:43:41.918Z,5.83
2017-02-28T02:44:22.561Z,5.82
2017-02-28T02:45:03.250Z,5.79
2017-02-28T02:45:43.958Z,5.75
2017-02-28T02:46:24.518Z,5.75
2017-02-28T02:47:05.168Z,5.61
2017-02-28T02:47:45.815Z,5.57
2017-02-28T02:48:26.488Z,5.65
2017-02-28T02:49:07.253Z,5.62
2017-02-28T02:49:47.990Z,5.51
2017-02-28T02:50:28.667Z,5.5
2017-02-28T02:51:09.384Z,5.5
2017-02-28T02:51:50.053Z,5.36
2017-02-28T02:52:30.738Z,5.39
2017-02-28T02:53:11.433Z,5.35
2017-02-28T02:53:52.008Z,5.35
2017-02-28T02:54:32.662Z,5.33
2017-02-28T02:55:13.360Z,5.21
2017-02-28T02:55:54.048Z,5.26
2017-02-28T02:56:34.623Z,5.25
2017-02-28T02:57:15.269Z,5.18
2017-02-28T02:57:56.959Z,5.17
2017-02-28T02:58:37.612Z,5.17
2017-02-28T02:59:18.264Z,5.12
2017-02-28T02:59:58.905Z,5.07
2017-02-28T03:00:39.554Z,5.05
2017-02-28T03:01:20.210Z,4.96
2017-02-28T03:02:00.867Z,4.96
2017-02-28T03:02:41.541Z,4.93
2017-02-28T03:03:22.260Z,4.92
2017-02-28T03:04:02.944Z,5.02
2017-02-28T03:04:43.682Z,4.93
2017-02-28T03:05:24.329Z,4.87
2017-02-28T03:06:04.926Z,4.78
2017-02-28T03:06:45.651Z,4.75
2017-02-28T03:07:26.338Z,4.84
2017-02-28T03:08:07.030Z,4.87
2017-02-28T03:08:47.593Z,4.74
2017-02-28T03:09:28.257Z,4.77
2017-02-28T03:10:09.971Z,4.73
2017-02-28T03:10:50.667Z,4.73
2017-02-28T03:11:31.227Z,4.63
2017-02-28T03:12:11.888Z,4.67
2017-02-28T03:12:52.641Z,4.67
2017-02-28T03:13:33.289Z,4.7
2017-02-28T03:14:13.952Z,4.62
2017-02-28T03:14:55.643Z,4.6
2017-02-28T03:15:36.392Z,4.59
2017-02-28T03:16:17.170Z,4.66
2017-02-28T03:16:57.890Z,4.6
2017-02-28T03:17:38.545Z,4.58
2017-02-28T03:18:19.206Z,4.66
2017-02-28T03:18:59.852Z,4.62
2017-02-28T03:19:40.499Z,4.59
2017-02-28T03:20:21.156Z,4.58
2017-02-28T03:21:01.801Z,4.59
2017-02-28T03:21:42.458Z,4.55
2017-02-28T03:22:23.158Z,4.55
2017-02-28T03:23:03.854Z,4.49
2017-02-28T03:23:44.426Z,4.52
2017-02-28T03:24:25.085Z,4.58
2017-02-28T03:25:05.765Z,4.49
2017-02-28T03:25:46.469Z,4.52
2017-02-28T03:26:27.051Z,4.44
2017-02-28T03:27:07.789Z,4.53
2017-02-28T03:27:49.465Z,4.49
2017-02-28T03:28:30.113Z,4.5
2017-02-28T03:29:10.772Z,4.5
2017-02-28T03:29:52.450Z,4.48
2017-02-28T03:30:33.114Z,4.52
2017-02-28T03:31:13.851Z,4.45
2017-02-28T03:31:54.508Z,4.5
2017-02-28T03:32:35.248Z,4.48
2017-02-28T03:33:15.816Z,4.48
2017-02-28T03:33:56.486Z,4.52
2017-02-28T03:34:37.205Z,4.52
2017-02-28T03:35:17.768Z,4.41
2017-02-28T03:35:59.447Z,4.5
2017-02-28T03:36:40.193Z,4.42
2017-02-28T03:37:20.773Z,4.48
2017-02-28T03:38:01.736Z,4.52
2017-02-28T03:38:42.453Z,4.42
2017-02-28T03:39:23.111Z,4.48
2017-02-28T03:40:03.704Z,4.42
2017-02-28T03:40:44.439Z,4.41
2017-02-28T03:41:27.116Z,4.35
2017-02-28T03:42:09.817Z,4.32
2017-02-28T03:42:50.381Z,4.4
2017-02-28T03:43:31.042Z,4.38
2017-02-28T03:44:11.798Z,4.35
2017-02-28T03:44:52.439Z,4.38
2017-02-28T03:45:34.138Z,4.34
2017-02-28T03:46:14.886Z,4.37
2017-02-28T03:46:55.527Z,4.35
2017-02-28T03:47:36.191Z,4.34
2017-02-28T03:48:16.847Z,4.41
2017-02-28T03:48:57.611Z,4.32
2017-02-28T03:49:38.362Z,4.34
2017-02-28T03:50:19.132Z,4.32
2017-02-28T03:50:59.846Z,4.34
2017-02-28T03:51:40.514Z,4.38
2017-02-28T03:52:21.165Z,4.38
2017-02-28T03:53:01.870Z,4.38
2017-02-28T03:53:42.586Z,4.37
2017-02-28T03:54:24.250Z,4.42
2017-02-28T03:55:04.901Z,4.48
2017-02-28T03:55:46.594Z,4.42
2017-02-28T03:56:27.329Z,4.53
2017-02-28T03:57:08.085Z,4.5
2017-02-28T03:57:49.760Z,4.49
2017-02-28T03:58:30.455Z,4.49
2017-02-28T03:59:11.169Z,4.5
2017-02-28T03:59:51.840Z,4.44
2017-02-28T04:00:32.622Z,4.42
2017-02-28T04:01:13.323Z,4.49
2017-02-28T04:01:53.980Z,4.48
2017-02-28T04:02:34.681Z,4.45
2017-02-28T04:03:15.381Z,4.44
2017-02-28T04:03:55.955Z,4.48
2017-02-28T04:04:36.603Z,4.44
2017-02-28T04:05:17.296Z,4.42
2017-02-28T04:05:59.019Z,4.42
2017-02-28T04:06:39.575Z,4.42
2017-02-28T04:07:20.245Z,4.45
2017-02-28T04:08:00.896Z,4.4
2017-02-28T04:08:41.659Z,4.44
2017-02-28T04:09:22.476Z,4.35
2017-02-28T04:10:03.160Z,4.38
2017-02-28T04:10:43.824Z,4.37
2017-02-28T04:11:24.569Z,4.35
2017-02-28T04:12:05.313Z,4.37
2017-02-28T04:12:45.900Z,4.37
2017-02-28T04:13:26.623Z,4.34
2017-02-28T04:14:08.390Z,4.37
2017-02-28T04:14:48.944Z,4.32
2017-02-28T04:15:29.625Z,4.38
2017-02-28T04:16:10.349Z,4.32
2017-02-28T04:16:50.928Z,4.34
2017-02-28T04:17:33.619Z,4.34
2017-02-28T04:18:15.485Z,4.31
2017-02-28T04:18:56.052Z,4.34
2017-02-28T04:19:36.808Z,4.24
2017-02-28T04:20:17.544Z,4.26
2017-02-28T04:20:58.122Z,4.32
2017-02-28T04:21:38.870Z,4.32
2017-02-28T04:22:20.528Z,4.28
2017-02-28T04:23:01.116Z,4.34
2017-02-28T04:23:41.949Z,4.3
2017-02-28T04:24:22.647Z,4.31
2017-02-28T04:25:03.345Z,4.23
2017-02-28T04:25:43.922Z,4.32
2017-02-28T04:26:24.663Z,4.31
2017-02-28T04:27:05.357Z,4.37
2017-02-28T04:27:46.069Z,4.32
2017-02-28T04:28:26.667Z,4.3
2017-02-28T04:29:08.405Z,4.32
2017-02-28T04:29:49.098Z,4.26
2017-02-28T04:30:29.797Z,4.38
2017-02-28T04:31:10.358Z,4.34
2017-02-28T04:31:51.015Z,4.37
2017-02-28T04:32:31.766Z,4.41
2017-02-28T04:33:14.466Z,4.37
2017-02-28T04:33:55.125Z,4.44
2017-02-28T04:34:35.888Z,4.52
2017-02-28T04:35:18.590Z,4.52
2017-02-28T04:35:59.339Z,4.49
2017-02-28T04:36:40.095Z,4.6
2017-02-28T04:37:21.809Z,4.55
2017-02-28T04:38:02.517Z,4.59
2017-02-28T04:38:43.072Z,4.6
2017-02-28T04:39:24.758Z,4.62
2017-02-28T04:40:06.465Z,4.68
2017-02-28T04:40:47.269Z,4.63
2017-02-28T04:41:27.902Z,4.68
2017-02-28T04:42:08.599Z,4.6
2017-02-28T04:42:49.349Z,4.68
2017-02-28T04:43:30.123Z,4.75
2017-02-28T04:44:10.865Z,4.75
2017-02-28T04:44:51.512Z,4.7
2017-02-28T04:45:32.266Z,4.84
2017-02-28T04:46:12.920Z,4.75
2017-02-28T04:46:58.186Z,4.78
2017-02-28T04:47:39.903Z,4.87
2017-02-28T04:48:20.596Z,4.87
2017-02-28T04:49:01.163Z,4.9
2017-02-28T04:49:42.953Z,4.84
2017-02-28T04:50:23.634Z,4.97
2017-02-28T04:51:04.334Z,4.96
2017-02-28T04:51:44.908Z,4.86
2017-02-28T04:52:25.663Z,5
2017-02-28T04:53:06.406Z,5.05
2017-02-28T04:53:49.107Z,5
2017-02-28T04:54:29.765Z,4.99
2017-02-28T04:55:10.528Z,5.07
2017-02-28T04:55:51.180Z,4.93
2017-02-28T04:56:31.945Z,4.94
2017-02-28T04:57:12.671Z,5.05
2017-02-28T04:57:53.261Z,5.07
2017-02-28T04:58:34.002Z,5.1
2017-02-28T04:59:14.737Z,5.05
2017-02-28T04:59:55.284Z,5.05
2017-02-28T05:00:35.957Z,5.12
2017-02-28T05:01:16.605Z,5.14
2017-02-28T05:01:57.169Z,5.17
2017-02-28T05:02:37.726Z,5.18
2017-02-28T05:03:18.465Z,5.2
2017-02-28T05:03:59.212Z,5.15
2017-02-28T05:04:39.973Z,5.26
2017-02-28T05:05:20.732Z,5.23
2017-02-28T05:06:02.411Z,5.28
2017-02-28T05:06:44.077Z,5.2
2017-02-28T05:07:24.851Z,5.23
2017-02-28T05:08:05.596Z,5.21
2017-02-28T05:08:47.271Z,5.21
2017-02-28T05:09:28.027Z,5.23
2017-02-28T05:10:08.679Z,5.29
2017-02-28T05:10:49.340Z,5.21
2017-02-28T05:11:31.010Z,5.21
2017-02-28T05:12:11.765Z,5.26
2017-02-28T05:12:52.537Z,5.18
2017-02-28T05:13:34.323Z,5.23
2017-02-28T05:14:15.058Z,5.21
2017-02-28T05:14:55.808Z,5.2
2017-02-28T05:15:37.521Z,5.15
2017-02-28T05:16:18.258Z,5.07
2017-02-28T05:16:58.988Z,5.1
2017-02-28T05:17:39.759Z,5.11
2017-02-28T05:18:20.512Z,5.11
2017-02-28T05:19:01.274Z,4.96
2017-02-28T05:19:43.061Z,5.05
2017-02-28T05:20:23.806Z,4.92
2017-02-28T05:21:05.581Z,4.96
2017-02-28T05:21:47.254Z,4.93
2017-02-28T05:22:28.007Z,4.84
2017-02-28T05:23:08.784Z,4.87
2017-02-28T05:23:55.255Z,4.84
2017-02-28T05:24:36.011Z,4.84
2017-02-28T05:25:16.780Z,4.75
2017-02-28T05:25:57.519Z,4.8
2017-02-28T05:26:38.276Z,4.77
2017-02-28T05:27:19.030Z,4.82
2017-02-28T05:27:59.788Z,4.8
2017-02-28T05:28:41.503Z,4.8
2017-02-28T05:29:22.257Z,4.82
2017-02-28T05:30:02.973Z,4.78
2017-02-28T05:30:45.562Z,4.86
2017-02-28T05:31:26.342Z,4.9
2017-02-28T05:32:07.098Z,4.86
2017-02-28T05:32:47.825Z,4.89
2017-02-28T05:33:28.393Z,5.02
2017-02-28T05:34:13.838Z,4.92
2017-02-28T05:34:55.519Z,4.99
2017-02-28T05:35:36.079Z,4.97
2017-02-28T05:36:17.756Z,4.97
2017-02-28T05:36:58.503Z,4.97
2017-02-28T05:37:39.078Z,4.96
2017-02-28T05:38:20.855Z,4.94
2017-02-28T05:39:06.570Z,4.96
2017-02-28T05:39:47.258Z,5.07
2017-02-28T05:40:27.835Z,5.04
2017-02-28T05:41:08.583Z,5.11
2017-02-28T05:41:49.378Z,5.08
2017-02-28T05:42:31.097Z,5.07
2017-02-28T05:43:11.671Z,5.07
2017-02-28T05:43:52.418Z,5.15
2017-02-28T05:44:33.145Z,5.1
2017-02-28T05:45:13.712Z,5.15
2017-02-28T05:45:54.344Z,5.08
2017-02-28T05:46:39.740Z,5.05
2017-02-28T05:47:20.455Z,5.15
2017-02-28T05:48:02.227Z,5.18
2017-02-28T05:48:44.924Z,5.18
2017-02-28T05:49:25.676Z,5.17
2017-02-28T05:50:12.065Z,5.08
2017-02-28T05:50:52.735Z,5.18
2017-02-28T05:51:33.473Z,5.2
2017-02-28T05:52:14.270Z,5.17
2017-02-28T05:52:54.844Z,5.25
2017-02-28T05:53:35.596Z,5.23
2017-02-28T05:54:16.285Z,5.26
2017-02-28T05:54:56.983Z,5.28
2017-02-28T05:55:37.558Z,5.29
2017-02-28T05:56:18.310Z,5.25
2017-02-28T05:56:59.001Z,5.29
2017-02-28T05:57:40.729Z,5.35
2017-02-28T05:58:21.495Z,5.36
2017-02-28T05:59:02.291Z,5.32
2017-02-28T05:59:45.165Z,5.38
2017-02-28T06:00:31.756Z,5.36
2017-02-28T06:01:12.494Z,5.35
2017-02-28T06:01:57.758Z,5.39
2017-02-28T06:02:38.509Z,5.33
2017-02-28T06:03:19.085Z,5.35
2017-02-28T06:04:00.860Z,5.39
2017-02-28T06:04:42.617Z,5.38
2017-02-28T06:05:23.217Z,5.46
2017-02-28T06:06:04.971Z,5.46
2017-02-28T06:06:46.726Z,5.48
2017-02-28T06:07:27.485Z,5.47
2017-02-28T06:08:08.236Z,5.46
2017-02-28T06:08:49.014Z,5.5
2017-02-28T06:09:30.772Z,5.47
2017-02-28T06:10:11.528Z,5.51
2017-02-28T06:10:52.284Z,5.56
2017-02-28T06:11:34.114Z,5.47
2017-02-28T06:12:14.679Z,5.51
2017-02-28T06:12:55.391Z,5.47
2017-02-28T06:13:36.140Z,5.47
2017-02-28T06:14:17.927Z,5.51
2017-02-28T06:15:03.271Z,5.5
2017-02-28T06:15:43.943Z,5.47
2017-02-28T06:16:24.702Z,5.46
2017-02-28T06:17:07.391Z,5.56
2017-02-28T06:17:48.240Z,5.59
2017-02-28T06:18:28.987Z,5.53
2017-02-28T06:19:09.751Z,5.59
2017-02-28T06:19:50.524Z,5.57
2017-02-28T06:20:31.268Z,5.54
2017-02-28T06:21:12.444Z,5.57
2017-02-28T06:21:53.182Z,5.62
2017-02-28T06:22:33.890Z,5.56
2017-02-28T06:23:14.681Z,5.59
2017-02-28T06:23:55.250Z,5.53
2017-02-28T06:24:36.013Z,5.61
2017-02-28T06:25:16.698Z,5.61
2017-02-28T06:25:58.420Z,5.54
2017-02-28T06:26:39.022Z,5.59
2017-02-28T06:27:22.611Z,5.59
2017-02-28T06:28:07.966Z,5.61
2017-02-28T06:28:48.529Z,5.56
2017-02-28T06:29:31.232Z,5.56
2017-02-28T06:30:11.961Z,5.59
2017-02-28T06:30:52.515Z,5.59
2017-02-28T06:31:33.285Z,5.61
2017-02-28T06:32:14.019Z,5.64
2017-02-28T06:32:54.595Z,5.64
2017-02-28T06:33:35.341Z,5.62
2017-02-28T06:34:21.063Z,5.68
2017-02-28T06:35:01.860Z,5.69
2017-02-28T06:35:42.427Z,5.61
2017-02-28T06:36:24.208Z,5.69
2017-02-28T06:37:04.895Z,5.68
2017-02-28T06:37:45.614Z,5.61
2017-02-28T06:38:26.373Z,5.65
2017-02-28T06:39:08.154Z,5.64
2017-02-28T06:39:49.922Z,5.65
2017-02-28T06:40:30.684Z,5.65
2017-02-28T06:41:12.464Z,5.61
2017-02-28T06:41:53.228Z,5.72
2017-02-28T06:42:34.018Z,5.65
2017-02-28T06:43:14.713Z,5.59
2017-02-28T06:43:55.273Z,5.61
2017-02-28T06:44:36.041Z,5.68
2017-02-28T06:45:16.722Z,5.75
2017-02-28T06:45:57.426Z,5.61
2017-02-28T06:46:37.976Z,5.68
2017-02-28T06:47:20.741Z,5.68
2017-02-28T06:48:01.503Z,5.69
2017-02-28T06:48:42.085Z,5.69
2017-02-28T06:49:22.634Z,5.73
2017-02-28T06:50:04.332Z,5.69
2017-02-28T06:50:45.025Z,5.72
2017-02-28T06:51:26.750Z,5.75
2017-02-28T06:52:07.308Z,5.69
2017-02-28T06:52:49.922Z,5.76
2017-02-28T06:53:30.499Z,5.72
2017-02-28T06:54:11.097Z,5.75
2017-02-28T06:54:51.660Z,5.75
2017-02-28T06:55:34.302Z,5.83
2017-02-28T06:56:15.974Z,5.73
2017-02-28T06:56:56.575Z,5.76
2017-02-28T06:57:37.134Z,5.82
2017-02-28T06:58:19.734Z,5.79
2017-02-28T06:59:00.379Z,5.82
2017-02-28T06:59:40.944Z,5.84
2017-02-28T07:00:34.209Z,5.79
2017-02-28T07:01:14.833Z,5.82
2017-02-28T07:01:55.392Z,5.82
2017-02-28T07:02:36.051Z,5.79
2017-02-28T07:03:16.634Z,5.83
2017-02-28T07:04:03.210Z,5.82
2017-02-28T07:04:59.763Z,5.76
2017-02-28T07:05:41.424Z,5.82
2017-02-28T07:06:22.053Z,5.87
2017-02-28T07:07:13.145Z,5.82
2017-02-28T07:07:53.787Z,5.79
2017-02-28T07:08:35.497Z,5.87
2017-02-28T07:09:16.120Z,5.83
2017-02-28T07:09:56.807Z,5.86
2017-02-28T07:10:37.421Z,5.83
2017-02-28T07:11:19.115Z,5.79
2017-02-28T07:12:00.874Z,5.8
2017-02-28T07:12:41.450Z,5.87
2017-02-28T07:13:22.142Z,5.86
2017-02-28T07:14:02.744Z,5.82
2017-02-28T07:14:44.511Z,5.83
2017-02-28T07:15:25.286Z,5.87
2017-02-28T07:16:06.014Z,5.84
2017-02-28T07:16:46.700Z,5.93
2017-02-28T07:17:32.857Z,5.89
2017-02-28T07:18:13.434Z,5.87
2017-02-28T07:18:54.265Z,5.87
2017-02-28T07:19:35.030Z,5.89
2017-02-28T07:20:15.633Z,5.86
2017-02-28T07:20:56.223Z,5.82
2017-02-28T07:21:36.796Z,5.87
2017-02-28T07:22:24.228Z,5.87
2017-02-28T07:23:04.892Z,5.87
2017-02-28T07:23:46.517Z,5.91
2017-02-28T07:24:27.095Z,5.84
2017-02-28T07:25:09.793Z,5.84
2017-02-28T07:25:51.392Z,5.89
2017-02-28T07:26:32.096Z,5.91
2017-02-28T07:27:12.659Z,5.83
2017-02-28T07:28:00.186Z,5.87
2017-02-28T07:28:41.840Z,5.9
2017-02-28T07:29:22.412Z,5.82
2017-02-28T07:30:04.999Z,5.86
2017-02-28T07:30:45.642Z,5.87
2017-02-28T07:31:26.220Z,5.83
2017-02-28T07:32:11.682Z,5.86
2017-02-28T07:32:52.313Z,5.84
2017-02-28T07:33:32.880Z,5.86
2017-02-28T07:34:18.138Z,5.99
2017-02-28T07:35:04.469Z,5.91
2017-02-28T07:35:45.060Z,5.94
2017-02-28T07:36:25.627Z,5.97
2017-02-28T07:37:06.281Z,6.04
2017-02-28T07:37:53.433Z,6.02
2017-02-28T07:38:50.990Z,6.11
2017-02-28T07:39:31.628Z,6.05
2017-02-28T07:40:12.282Z,6.08
2017-02-28T07:40:52.936Z,6.19
2017-02-28T07:41:34.615Z,6.17
2017-02-28T07:42:26.014Z,6.19
2017-02-28T07:43:06.697Z,6.19
2017-02-28T07:43:47.325Z,6.08
2017-02-28T07:44:27.969Z,6.2
2017-02-28T07:45:08.651Z,6.17
2017-02-28T07:45:49.275Z,6.08
2017-02-28T07:46:35.458Z,6.14
2017-02-28T07:47:16.136Z,6.12
2017-02-28T07:47:56.683Z,6.11
2017-02-28T07:48:50.194Z,6.11
2017-02-28T07:49:30.821Z,6.08
2017-02-28T07:50:11.365Z,6.11
2017-02-28T07:50:52.952Z,6.04
2017-02-28T07:51:33.593Z,6.11
2017-02-28T07:52:14.149Z,6.08
2017-02-28T07:52:55.749Z,6.11
2017-02-28T07:53:36.447Z,6.17
2017-02-28T07:54:17.033Z,6.22
2017-02-28T07:54:57.689Z,6.08
2017-02-28T07:55:38.364Z,6.17
2017-02-28T07:56:18.999Z,6.11
2017-02-28T07:56:59.640Z,6.26
2017-02-28T07:57:40.292Z,6.2
2017-02-28T07:58:20.884Z,6.19
2017-02-28T07:59:03.552Z,6.16
2017-02-28T07:59:46.321Z,6.19
2017-02-28T08:00:26.887Z,6.14
2017-02-28T08:01:09.497Z,6.22
2017-02-28T08:01:52.088Z,6.19
2017-02-28T08:02:32.648Z,6.22
2017-02-28T08:03:13.299Z,6.27
2017-02-28T08:03:58.677Z,6.2
2017-02-28T08:04:41.271Z,6.24
2017-02-28T08:05:22.956Z,6.33
2017-02-28T08:06:20.208Z,6.36
2017-02-28T08:07:11.700Z,6.41
2017-02-28T08:07:52.350Z,6.35
2017-02-28T08:08:34.065Z,6.41
2017-02-28T08:09:14.686Z,6.39
2017-02-28T08:09:55.328Z,6.46
2017-02-28T08:10:35.979Z,6.48
2017-02-28T08:11:16.658Z,6.52
2017-02-28T08:11:58.312Z,6.54
2017-02-28T08:12:38.968Z,6.49
2017-02-28T08:13:19.616Z,6.51
2017-02-28T08:14:00.313Z,6.49
2017-02-28T08:14:40.948Z,6.56
2017-02-28T08:15:26.185Z,6.56
2017-02-28T08:16:06.754Z,6.59
2017-02-28T08:16:49.352Z,6.6
2017-02-28T08:17:34.699Z,6.6
2017-02-28T08:18:15.296Z,6.57
2017-02-28T08:18:56.937Z,6.6
2017-02-28T08:19:39.535Z,6.49
2017-02-28T08:20:21.200Z,6.52
2017-02-28T08:21:01.885Z,6.54
2017-02-28T08:21:49.175Z,6.56
2017-02-28T08:22:31.759Z,6.49
2017-02-28T08:23:12.352Z,6.52
2017-02-28T08:23:52.952Z,6.44
2017-02-28T08:24:33.510Z,6.51
2017-02-28T08:25:14.094Z,6.46
2017-02-28T08:25:54.728Z,6.48
2017-02-28T08:26:35.312Z,6.44
2017-02-28T08:27:16.935Z,6.45
2017-02-28T08:27:57.493Z,6.48
2017-02-28T08:28:38.158Z,6.48
2017-02-28T08:29:23.644Z,6.52
2017-02-28T08:30:04.291Z,6.42
2017-02-28T08:30:44.926Z,6.41
2017-02-28T08:31:26.611Z,6.51
2017-02-28T08:32:07.254Z,6.31
2017-02-28T08:32:47.822Z,6.38
2017-02-28T08:33:28.442Z,6.41
2017-02-28T08:34:08.993Z,6.42
2017-02-28T08:34:49.629Z,6.38
2017-02-28T08:35:30.309Z,6.39
2017-02-28T08:36:10.914Z,6.45
2017-02-28T08:36:51.483Z,6.44
2017-02-28T08:37:32.132Z,6.38
2017-02-28T08:38:12.733Z,6.38
2017-02-28T08:38:53.420Z,6.39
2017-02-28T08:39:33.990Z,6.31
2017-02-28T08:40:14.642Z,6.31
2017-02-28T08:40:55.230Z,6.39
2017-02-28T08:41:35.828Z,6.35
2017-02-28T08:42:16.386Z,6.33
2017-02-28T08:42:57.052Z,6.42
2017-02-28T08:43:37.704Z,6.36
2017-02-28T08:44:18.359Z,6.24
2017-02-28T08:44:59.008Z,6.33
2017-02-28T08:45:39.763Z,6.33
2017-02-28T08:46:20.410Z,6.3
2017-02-28T08:47:01.075Z,6.38
2017-02-28T08:47:41.666Z,6.31
2017-02-28T08:48:23.279Z,6.36
2017-02-28T08:49:03.848Z,6.24
2017-02-28T08:49:44.505Z,6.27
2017-02-28T08:50:25.183Z,6.35
2017-02-28T08:51:05.889Z,6.36
2017-02-28T08:51:46.465Z,6.38
2017-02-28T08:52:27.117Z,6.24
2017-02-28T08:53:07.804Z,6.38
2017-02-28T08:53:48.458Z,6.35
2017-02-28T08:54:29.104Z,6.38
2017-02-28T08:55:09.707Z,6.35
2017-02-28T08:55:50.285Z,6.31
2017-02-28T08:56:30.916Z,6.39
2017-02-28T08:57:11.597Z,6.36
2017-02-28T08:57:52.250Z,6.33
2017-02-28T08:58:32.992Z,6.38
2017-02-28T08:59:13.752Z,6.28
2017-02-28T08:59:54.488Z,6.31
2017-02-28T09:00:35.265Z,6.24
2017-02-28T09:01:15.998Z,6.26
2017-02-28T09:01:56.765Z,6.22
2017-02-28T09:02:37.397Z,6.2
2017-02-28T09:03:19.006Z,6.22
2017-02-28T09:03:59.648Z,6.19
2017-02-28T09:04:40.296Z,6.27
2017-02-28T09:05:20.956Z,6.26
2017-02-28T09:06:03.554Z,6.27
2017-02-28T09:06:44.214Z,6.26
2017-02-28T09:07:24.845Z,6.22
2017-02-28T09:08:07.432Z,6.24
2017-02-28T09:08:47.987Z,6.24
2017-02-28T09:09:29.970Z,6.26
2017-02-28T09:10:10.825Z,6.24
2017-02-28T09:10:51.399Z,6.26
2017-02-28T09:11:32.044Z,6.27
2017-02-28T09:12:12.680Z,6.35
2017-02-28T09:12:53.261Z,6.22
2017-02-28T09:13:44.665Z,6.38
2017-02-28T09:14:27.460Z,6.36
2017-02-28T09:15:08.031Z,6.39
2017-02-28T09:15:50.708Z,6.44
2017-02-28T09:16:32.385Z,6.38
2017-02-28T09:17:12.949Z,6.31
2017-02-28T09:17:53.592Z,6.48
2017-02-28T09:18:34.195Z,6.42
2017-02-28T09:19:14.778Z,6.51
2017-02-28T09:19:55.360Z,6.57
2017-02-28T09:20:36.020Z,6.52
2017-02-28T09:21:16.589Z,6.59
2017-02-28T09:21:57.294Z,6.6
2017-02-28T09:22:37.852Z,6.54
2017-02-28T09:23:18.509Z,6.51
2017-02-28T09:24:04.015Z,6.56
2017-02-28T09:24:44.712Z,6.54
2017-02-28T09:25:25.404Z,6.59
2017-02-28T09:26:06.229Z,6.63
2017-02-28T09:26:46.911Z,6.63
2017-02-28T09:27:29.654Z,6.7
2017-02-28T09:28:11.450Z,6.59
2017-02-28T09:28:58.986Z,6.75
2017-02-28T09:29:39.688Z,6.6
2017-02-28T09:30:20.355Z,6.7
2017-02-28T09:31:01.046Z,6.66
2017-02-28T09:31:41.677Z,6.67
2017-02-28T09:32:22.352Z,6.7
2017-02-28T09:33:03.029Z,6.74
2017-02-28T09:33:43.673Z,6.77
2017-02-28T09:34:24.324Z,6.84
2017-02-28T09:35:05.948Z,6.78
2017-02-28T09:35:46.611Z,6.78
2017-02-28T09:36:29.255Z,6.77
2017-02-28T09:37:09.880Z,6.77
2017-02-28T09:37:50.463Z,6.88
2017-02-28T09:38:31.039Z,6.88
2017-02-28T09:39:11.613Z,6.81
2017-02-28T09:39:52.250Z,6.88
2017-02-28T09:40:33.847Z,6.95
2017-02-28T09:41:14.413Z,6.97
2017-02-28T09:41:55.067Z,6.89
2017-02-28T09:42:35.650Z,7.02
2017-02-28T09:43:16.400Z,7
2017-02-28T09:43:57.159Z,6.99
2017-02-28T09:44:37.734Z,7.03
2017-02-28T09:45:18.307Z,7.11
2017-02-28T09:45:58.897Z,7.2
2017-02-28T09:46:39.532Z,7.17
2017-02-28T09:47:20.102Z,7.13
2017-02-28T09:48:00.738Z,7.15
2017-02-28T09:48:41.397Z,7.11
2017-02-28T09:49:22.047Z,7.17
2017-02-28T09:50:02.704Z,7.2
2017-02-28T09:50:43.344Z,7.17
2017-02-28T09:51:24.012Z,7.18
2017-02-28T09:52:04.757Z,7.21
2017-02-28T09:52:45.412Z,7.2
2017-02-28T09:53:26.177Z,7.21
2017-02-28T09:54:06.927Z,7.23
2017-02-28T09:54:47.683Z,7.21
2017-02-28T09:55:28.435Z,7.23
2017-02-28T09:56:09.013Z,7.25
2017-02-28T09:56:49.759Z,7.25
2017-02-28T09:57:30.416Z,7.28
2017-02-28T09:58:11.103Z,7.24
2017-02-28T09:58:51.666Z,7.25
2017-02-28T09:59:32.267Z,7.2
2017-02-28T10:00:12.899Z,7.28
2017-02-28T10:00:53.460Z,7.24
2017-02-28T10:01:35.049Z,7.29
2017-02-28T10:02:15.681Z,7.31
2017-02-28T10:02:56.248Z,7.31
2017-02-28T10:03:36.885Z,7.14
2017-02-28T10:04:17.496Z,7.21
2017-02-28T10:04:58.093Z,7.2
2017-02-28T10:05:38.655Z,7.2
2017-02-28T10:06:19.319Z,7.2
2017-02-28T10:06:59.897Z,7.21
2017-02-28T10:07:40.495Z,7.28
2017-02-28T10:08:21.059Z,7.28
2017-02-28T10:09:01.706Z,7.25
2017-02-28T10:09:42.317Z,7.17
2017-02-28T10:10:23.112Z,7.18
2017-02-28T10:11:03.692Z,7.18
2017-02-28T10:11:44.421Z,7.18
2017-02-28T10:12:25.023Z,7.17
2017-02-28T10:13:05.826Z,7.2
2017-02-28T10:13:46.473Z,7.2
2017-02-28T10:14:27.238Z,7.28
2017-02-28T10:15:07.882Z,7.28
2017-02-28T10:15:48.534Z,7.33
2017-02-28T10:16:29.192Z,7.38
2017-02-28T10:17:09.845Z,7.38
2017-02-28T10:17:50.405Z,7.43
2017-02-28T10:18:31.094Z,7.58
2017-02-28T10:19:11.749Z,7.54
2017-02-28T10:19:52.347Z,7.67
2017-02-28T10:20:32.906Z,7.63
2017-02-28T10:21:13.570Z,7.75
2017-02-28T10:21:54.161Z,7.72
2017-02-28T10:22:34.853Z,7.8
2017-02-28T10:23:15.440Z,7.88
2017-02-28T10:23:56.120Z,7.82
2017-02-28T10:24:36.768Z,7.9
2017-02-28T10:25:17.579Z,7.97
2017-02-28T10:25:58.152Z,7.97
2017-02-28T10:26:38.789Z,7.97
2017-02-28T10:27:19.481Z,7.98
2017-02-28T10:28:01.220Z,7.9
2017-02-28T10:28:41.865Z,8
2017-02-28T10:29:22.515Z,7.97
2017-02-28T10:30:03.181Z,7.95
2017-02-28T10:30:43.825Z,7.79
2017-02-28T10:31:24.477Z,7.83
2017-02-28T10:32:05.129Z,7.9
2017-02-28T10:32:45.690Z,7.83
2017-02-28T10:33:26.352Z,7.87
2017-02-28T10:34:06.936Z,7.9
2017-02-28T10:34:49.573Z,7.87
2017-02-28T10:35:30.144Z,7.77
2017-02-28T10:36:10.813Z,7.83